Latest Weather Observations for kunanyi / Mount Wellington

IDT60801

Issued at 10:21 pm EST Friday 12 July 2024 (issued every 10 minutes, with the page automatically refreshed every 10 minutes)

About weather observations | Map of weather stations | Latest weather observations for TAS | Other Formats
Station Details ID: 094087 Name: KUNANYI (MOUNT WELLINGTON PINNACLE) Lat: -42.90 Lon: 147.24 Height: 1260.47 m
Data from the previous 72 hours. | See also: Recent months at kunanyi / Mount Wellington
Date/Time
EST
Temp
°C
App
Temp
°C
Dew
Point
°C
Rel
Hum
%
Delta-T
°C
Wind Press
QNH
hPa
Press
MSL
hPa
Rain since
9am
mm
Dir  Spd
km/h
Gust
km/h
Spd
kts
Gust
kts
12/10:00pm 0.9 -8.8 0.5 97 0.2 WNW 41 54 22 29 - - 0.0
12/09:38pm 1.0 -7.1 0.7 98 0.1 W 33 54 18 29 - - 0.0
12/09:30pm 1.1 -7.0 0.8 98 0.1 W 33 44 18 24 - - 0.0
12/09:00pm 1.6 -7.7 0.9 95 0.3 WNW 39 52 21 28 - - 0.0
12/08:30pm 1.6 -9.4 0.6 93 0.4 NW 48 61 26 33 - - 0.0
12/08:00pm 1.6 -8.5 0.3 91 0.5 NW 43 57 23 31 - - 0.0
12/07:34pm 1.8 -7.9 0.2 89 0.6 NW 41 61 22 33 - - 0.0
12/07:30pm 1.9 -7.9 0.1 88 0.7 NW 41 54 22 29 - - 0.0
12/07:00pm 1.9 -8.8 0.0 87 0.8 NW 46 61 25 33 - - 0.0
12/06:30pm 1.9 -9.2 0.3 89 0.6 NW 48 69 26 37 - - 0.0
12/06:00pm 1.9 -8.9 -0.5 84 0.9 NW 46 65 25 35 - - 0.0
12/05:43pm 1.9 -8.5 -0.7 83 1.0 NW 44 65 24 35 - - 0.0
12/05:30pm 1.9 -8.9 -0.7 83 1.0 NW 46 61 25 33 - - 0.0
12/05:00pm 2.0 -8.4 -0.4 84 1.0 NW 44 57 24 31 - - 0.0
12/04:30pm 2.3 -7.5 0.0 85 0.9 NW 41 56 22 30 - - 0.0
12/04:00pm 2.7 -6.7 0.1 83 1.1 NW 39 54 21 29 - - 0.0
12/03:30pm 3.0 -5.1 0.7 85 0.9 NW 33 44 18 24 - - 0.0
12/03:00pm 3.2 -4.4 0.6 83 1.1 NW 30 43 16 23 - - 0.0
12/02:30pm 3.2 -3.6 0.6 83 1.1 WNW 26 35 14 19 - - 0.0
12/02:00pm 3.0 -3.9 -0.1 80 1.3 WNW 26 35 14 19 - - 0.0
12/01:30pm 2.6 -6.6 -1.2 76 1.5 WNW 37 50 20 27 - - 0.0
12/01:00pm 2.8 -5.5 -1.7 72 1.7 WNW 32 44 17 24 - - 0.0
12/12:30pm 2.3 -4.7 -0.8 80 1.2 WNW 26 37 14 20 - - 0.0
12/12:00pm 3.2 -4.1 -2.9 64 2.3 W 26 35 14 19 - - 0.0
12/11:30am 3.1 -5.8 -4.8 56 2.8 WNW 33 41 18 22 - - 0.0
12/11:00am 1.3 -6.6 -1.4 82 1.0 WNW 30 43 16 23 - - 0.0
12/10:30am 1.2 -7.2 -1.0 85 0.9 WNW 33 43 18 23 - - 0.0
12/10:00am 0.6 -7.6 0.5 99 0.0 WNW 33 41 18 22 - - 0.0
12/09:30am 0.8 -6.4 0.8 100 0.0 W 28 39 15 21 - - 0.0
12/09:00am 1.0 -6.2 0.9 99 0.0 W 28 35 15 19 - - 0.0
12/08:30am 0.5 -7.5 0.4 99 0.0 W 32 35 17 19 - - 0.0
12/08:00am 0.6 -7.4 0.5 99 0.0 W 32 41 17 22 - - 0.0
12/07:30am 1.0 -5.4 0.9 99 0.0 W 24 37 13 20 - - 0.0
12/07:00am 1.0 -6.6 0.7 98 0.1 W 30 37 16 20 - - 0.0
12/06:30am 1.6 -6.9 0.9 95 0.3 W 35 50 19 27 - - 0.0
12/06:00am 1.6 -8.0 1.0 96 0.2 WSW 41 50 22 27 - - 0.0
12/05:30am 1.7 -7.9 1.3 97 0.2 WSW 41 52 22 28 - - 0.0
12/05:00am 1.7 -8.2 1.7 100 0.0 WSW 43 56 23 30 - - 0.0
12/04:38am 2.2 -7.8 2.2 100 0.0 W 44 63 24 34 - - 0.0
12/04:30am 2.4 -7.6 2.4 100 0.0 WNW 44 59 24 32 - - 0.0
12/04:26am 2.5 -7.3 2.5 100 0.0 WNW 43 61 23 33 - - 0.0
12/04:00am 2.3 -7.1 2.3 100 0.0 NW 41 54 22 29 - - 0.0
12/03:38am 2.4 -7.9 2.4 100 0.0 NW 46 67 25 36 - - 0.0
12/03:30am 2.3 -8.4 2.3 100 0.0 NW 48 63 26 34 - - 0.0
12/03:00am 2.2 -9.7 2.2 100 0.0 NNW 54 67 29 36 - - 0.0
12/02:34am 2.0 -8.4 1.9 99 0.0 NNW 46 65 25 35 - - 0.0
12/02:30am 2.0 -8.4 1.9 99 0.0 NNW 46 63 25 34 - - 0.0
12/02:05am 1.9 -8.9 1.8 99 0.0 NNW 48 67 26 36 - - 0.0
12/02:00am 1.9 -9.3 1.8 99 0.0 NNW 50 67 27 36 - - 0.0
12/01:30am 1.8 -9.5 1.5 98 0.1 NNW 50 72 27 39 - - 0.0
12/01:02am 1.5 -9.1 1.1 97 0.2 NNW 46 67 25 36 - - 0.0
12/01:00am 1.6 -9.3 1.2 97 0.2 NNW 48 67 26 36 - - 0.0
12/12:30am 1.6 -10.1 1.2 97 0.2 NNW 52 70 28 38 - - 0.0
12/12:00am 1.7 -10.9 1.3 97 0.2 NNW 57 76 31 41 - - 0.0
 
Date/Time
EST
Temp
°C
App
Temp
°C
Dew
Point
°C
Rel
Hum
%
Delta-T
°C
Wind Press
QNH
hPa
Press
MSL
hPa
Rain since
9am
mm
Dir  Spd
km/h
Gust
km/h
Spd
kts
Gust
kts
11/11:59pm 1.6 -11.0 1.2 97 0.2 NNW 57 76 31 41 - - 0.0
11/11:30pm 1.7 -10.9 1.4 98 0.1 NNW 57 72 31 39 - - 0.0
11/11:26pm 1.6 -11.4 1.3 98 0.1 N 59 78 32 42 - - 0.0
11/11:00pm 1.5 -11.1 1.4 99 0.0 NNW 57 70 31 38 - - 0.0
11/10:30pm 1.6 -9.7 1.5 99 0.0 N 50 70 27 38 - - 0.0
11/10:00pm 1.6 -10.4 1.3 98 0.1 N 54 72 29 39 - - 0.0
11/09:30pm 1.8 -11.2 1.4 97 0.2 N 59 74 32 40 - - 0.0
11/09:00pm 1.8 -12.0 0.8 93 0.4 N 63 85 34 46 - - 0.0
11/08:30pm 1.7 -12.1 1.0 95 0.3 NNW 63 87 34 47 - - 0.0
11/08:06pm 1.5 -12.0 0.6 94 0.4 N 61 82 33 44 - - 0.0
11/08:00pm 1.5 -12.0 0.5 93 0.4 N 61 76 33 41 - - 0.0
11/07:30pm 1.8 -11.2 1.1 95 0.3 NNW 59 74 32 40 - - 0.0
11/07:00pm 2.0 -11.0 1.4 96 0.2 N 59 76 32 41 - - 0.0
11/06:30pm 2.5 -10.9 1.3 92 0.5 N 61 82 33 44 - - 0.0
11/06:09pm 2.9 -10.9 0.8 86 0.9 NNW 63 82 34 44 - - 0.0
11/06:00pm 3.1 -11.2 0.3 82 1.1 NNW 65 82 35 44 - - 0.0
11/05:30pm 3.0 -11.2 0.7 85 0.9 NW 65 83 35 45 - - 0.0
11/05:01pm 3.1 -11.1 1.2 87 0.8 NNW 65 85 35 46 - - 0.0
11/05:00pm 3.1 -11.5 1.0 86 0.9 NNW 67 85 36 46 - - 0.0
11/04:30pm 3.2 -10.6 1.3 87 0.8 NNW 63 82 34 44 - - 0.0
11/04:08pm 3.1 -9.5 1.6 90 0.6 NNW 57 80 31 43 - - 0.0
11/04:00pm 3.0 -9.3 1.8 92 0.5 NNW 56 72 30 39 - - 0.0
11/03:36pm 3.0 -9.0 1.8 92 0.5 NNW 54 72 29 39 - - 0.0
11/03:30pm 3.0 -9.3 1.8 92 0.5 NNW 56 69 30 37 - - 0.0
11/03:00pm 3.2 -10.1 1.6 89 0.7 NW 61 78 33 42 - - 0.0
11/02:30pm 3.2 -9.1 1.9 91 0.6 NW 56 74 30 40 - - 0.0
11/02:22pm 3.2 -8.7 1.9 91 0.6 NW 54 74 29 40 - - 0.0
11/02:00pm 3.0 -7.8 1.8 92 0.5 NW 48 63 26 34 - - 0.0
11/01:30pm 3.2 -9.4 1.3 87 0.8 NW 57 72 31 39 - - 0.0
11/01:00pm 3.6 -10.2 1.2 84 1.0 NW 63 82 34 44 - - 0.0
11/12:30pm 3.4 -10.8 1.0 84 1.0 NW 65 83 35 45 - - 0.0
11/12:22pm 3.5 -10.7 1.1 84 1.0 NW 65 83 35 45 - - 0.0
11/12:00pm 3.2 -11.0 0.8 84 1.0 NW 65 82 35 44 - - 0.0
11/11:30am 3.4 -10.8 1.0 84 1.0 WNW 65 80 35 43 - - 0.0
11/11:21am 3.0 -10.8 0.7 85 0.9 NW 63 82 34 44 - - 0.0
11/11:00am 2.4 -11.9 0.3 86 0.9 WNW 65 82 35 44 - - 0.0
11/10:41am 2.3 -11.2 0.2 86 0.8 WNW 61 80 33 43 - - 0.0
11/10:30am 2.1 -11.9 0.0 86 0.8 WNW 63 76 34 41 - - 0.0
11/10:00am 2.9 -10.9 -1.6 72 1.8 NW 61 82 33 44 - - 0.0
11/09:58am 2.5 -11.2 -1.1 77 1.4 NW 61 82 33 44 - - 0.0
11/09:30am 3.4 -9.9 -3.8 59 2.7 NW 57 72 31 39 - - 0.0
11/09:20am 3.2 -9.6 -4.5 57 2.8 NW 54 72 29 39 - - 0.0
11/09:00am 3.4 -9.6 -6.8 47 3.7 NW 54 61 29 33 - - 5.4
11/08:30am 3.9 -9.1 -10.5 34 4.7 NW 52 59 28 32 - - 5.4
11/08:00am 3.3 -9.6 -9.0 40 4.2 NW 52 61 28 33 - - 5.4
11/07:30am 4.3 -8.3 -11.3 31 5.1 NW 50 63 27 34 - - 5.4
11/07:00am 4.6 -7.3 -11.5 30 5.2 NW 46 56 25 30 - - 5.4
11/06:30am 2.6 -8.8 -6.0 53 3.1 WNW 46 54 25 29 - - 5.4
11/06:00am 3.5 -7.7 -7.3 45 3.9 WNW 44 54 24 29 - - 5.4
11/05:30am 3.0 -8.5 -6.4 50 3.4 WNW 46 56 25 30 - - 5.4
11/05:00am 3.5 -8.0 -6.2 49 3.4 NW 46 56 25 30 - - 5.4
11/04:30am 3.5 -6.9 -4.7 55 3.0 WNW 41 50 22 27 - - 5.4
11/04:00am 5.0 -4.6 -8.5 37 4.5 WNW 35 43 19 23 - - 5.4
11/03:30am 3.8 -4.3 -6.7 46 3.6 WNW 28 35 15 19 - - 5.4
11/03:00am 4.4 -3.8 -7.4 42 4.0 WNW 28 32 15 17 - - 5.4
11/02:30am 3.6 -3.9 -4.3 56 2.9 WNW 26 32 14 17 - - 5.4
11/02:00am 3.7 -4.0 -2.9 62 2.5 W 28 35 15 19 - - 5.4
11/01:30am 3.9 -4.5 -0.9 71 1.9 W 33 43 18 23 - - 5.4
11/01:00am 4.2 -3.9 -0.6 71 1.9 WNW 32 37 17 20 - - 5.4
11/12:30am 4.3 -3.5 1.7 83 1.1 WNW 32 39 17 21 - - 5.4
11/12:00am 3.9 -2.1 3.6 98 0.1 WNW 24 32 13 17 - - 5.4
 
Date/Time
EST
Temp
°C
App
Temp
°C
Dew
Point
°C
Rel
Hum
%
Delta-T
°C
Wind Press
QNH
hPa
Press
MSL
hPa
Rain since
9am
mm
Dir  Spd
km/h
Gust
km/h
Spd
kts
Gust
kts
10/11:30pm 4.3 -1.3 3.6 95 0.3 WNW 22 32 12 17 - - 5.4
10/11:00pm 4.6 -1.0 3.7 94 0.4 WNW 22 28 12 15 - - 5.4
10/10:30pm 4.5 -0.7 3.6 94 0.4 W 20 24 11 13 - - 5.4
10/10:00pm 4.6 0.3 3.1 90 0.7 WNW 15 20 8 11 - - 5.4
10/09:30pm 4.0 -0.3 3.3 95 0.3 W 15 19 8 10 - - 5.4
10/09:00pm 4.5 -0.5 4.4 99 0.0 W 20 28 11 15 - - 5.4
10/08:30pm 4.5 -1.3 4.5 100 0.0 WSW 24 30 13 16 - - 5.4
10/08:00pm 4.8 -0.5 4.8 100 0.0 W 22 28 12 15 - - 5.4
10/07:30pm 4.8 -0.2 4.8 100 0.0 WSW 20 28 11 15 - - 5.4
10/07:00pm 5.3 0.1 5.3 100 0.0 WSW 22 28 12 15 - - 5.4
10/06:30pm 5.4 -0.2 5.4 100 0.0 WSW 24 28 13 15 - - 5.0
10/06:00pm 5.0 0.3 5.0 100 0.0 SW 19 22 10 12 - - 5.0
10/05:30pm 5.0 -0.3 5.0 100 0.0 SW 22 26 12 14 - - 4.8
10/05:00pm 5.3 0.1 5.3 100 0.0 SW 22 26 12 14 - - 4.8
10/04:30pm 5.1 0.4 5.1 100 0.0 SW 19 22 10 12 - - 4.8
10/04:00pm 5.4 1.1 5.4 100 0.0 WSW 17 24 9 13 - - 4.8
10/03:30pm 6.1 4.4 6.1 100 0.0 W 4 6 2 3 - - 4.8
10/03:00pm 6.2 4.2 6.2 100 0.0 WNW 6 9 3 5 - - 4.8
10/02:30pm 6.3 4.1 6.3 100 0.0 NW 7 9 4 5 - - 4.8
10/02:00pm 6.2 3.6 6.2 100 0.0 NW 9 13 5 7 - - 4.8
10/01:30pm 6.3 3.7 6.3 100 0.0 N 9 13 5 7 - - 4.8
10/01:00pm 6.1 3.9 6.1 100 0.0 N 7 13 4 7 - - 4.6
10/12:30pm 6.4 4.2 6.4 100 0.0 NNE 7 9 4 5 - - 4.6
10/12:00pm 6.6 4.5 6.6 100 0.0 ENE 7 13 4 7 - - 4.6
10/11:30am 7.0 5.0 7.0 100 0.0 ESE 7 11 4 6 - - 3.8
10/11:00am 6.5 4.9 6.5 100 0.0 E 4 6 2 3 - - 3.4
10/10:30am 6.2 3.2 6.2 100 0.0 SSE 11 19 6 10 - - 3.2
10/10:00am 6.0 1.5 6.0 100 0.0 SSE 19 26 10 14 - - 3.0
10/09:30am 5.8 -0.1 5.8 100 0.0 SSE 26 41 14 22 - - 2.0
10/09:00am 5.8 -1.2 5.8 100 0.0 SSE 32 44 17 24 - - 18.2
10/08:32am 5.8 -1.4 5.8 100 0.0 SSE 33 52 18 28 - - 16.4
10/08:30am 5.8 -1.8 5.8 100 0.0 SSE 35 52 19 28 - - 16.4
10/08:00am 6.0 -1.9 6.0 100 0.0 SE 37 56 20 30 - - 14.0
10/07:30am 6.1 -1.8 6.1 100 0.0 SSE 37 57 20 31 - - 12.0
10/07:14am 6.0 -2.3 6.0 100 0.0 SSE 39 57 21 31 - - 10.8
10/07:00am 6.1 -3.2 6.1 100 0.0 SSE 44 59 24 32 - - 9.6
10/06:30am 5.8 -2.2 5.8 100 0.0 SSE 37 52 20 28 - - 8.6
10/06:20am 5.8 -2.2 5.8 100 0.0 SSE 37 56 20 30 - - 8.0
10/06:00am 5.9 -2.8 5.9 100 0.0 SSE 41 59 22 32 - - 7.2
10/05:49am 5.8 -2.2 5.8 100 0.0 SSE 37 56 20 30 - - 6.4
10/05:30am 5.5 -3.7 5.5 100 0.0 SSE 43 56 23 30 - - 5.6
10/05:00am 5.4 -3.4 5.4 100 0.0 SSE 41 59 22 32 - - 5.0
10/04:45am 5.2 -4.1 5.2 100 0.0 SSE 43 63 23 34 - - 4.0
10/04:30am 5.5 -3.3 5.5 100 0.0 SSE 41 52 22 28 - - 3.8
10/04:00am 5.0 -4.3 5.0 100 0.0 S 43 56 23 30 - - 3.0
10/03:30am 4.5 -4.5 4.5 100 0.0 SSE 41 56 22 30 - - 2.8
10/03:00am 4.6 -3.6 4.6 100 0.0 S 37 48 20 26 - - 2.2
10/02:30am 3.5 -6.3 3.4 99 0.0 S 44 56 24 30 - - 2.2
10/02:00am 3.1 -6.2 3.0 99 0.0 S 41 54 22 29 - - 2.2
10/01:30am 3.1 -4.7 3.0 99 0.0 S 33 46 18 25 - - 2.2
10/01:00am 3.4 -5.4 3.4 100 0.0 S 39 48 21 26 - - 2.2
10/12:30am 2.9 -5.3 2.9 100 0.0 S 35 46 19 25 - - 2.2
10/12:00am 3.3 -4.8 3.3 100 0.0 S 35 46 19 25 - - 2.2
 
Date/Time
EST
Temp
°C
App
Temp
°C
Dew
Point
°C
Rel
Hum
%
Delta-T
°C
Wind Press
QNH
hPa
Press
MSL
hPa
Rain since
9am
mm
Dir  Spd
km/h
Gust
km/h
Spd
kts
Gust
kts
09/11:30pm 3.5 -4.2 3.5 100 0.0 SSE 33 44 18 24 - - 2.2
09/11:00pm 3.7 -4.3 3.7 100 0.0 S 35 44 19 24 - - 2.0
09/10:30pm 3.9 -3.7 3.9 100 0.0 S 33 41 18 22 - - 1.8

Other formats

Comma delimited format used in spreadsheet applications
http://www.bom.gov.au/fwo/IDT60801/IDT60801.95979.axf

JavaScript Object Notation format (JSON) in row-major order
http://www.bom.gov.au/fwo/IDT60801/IDT60801.95979.json

Data quality

Most of these data are generated automatically and are frequently updated. Quality checks on data are not normally performed. It is possible for incorrect values to appear. Refer to information at About Latest Weather Observations and please check the disclaimer before using these data.